Time;durP1;ratioP1;P1;durP2;ratioP2;P2;SDS_P1;SDS_P2;PMS_P1;PMS_P2;Temp;Humidity;BMP_temperature;BMP_pressure;BME280_temperature;BME280_humidity;BME280_pressure;Samples;Min_cycle;Max_cycle;Signal;HPM_P1;HPM_P2
2023/06/07 00:00:17;;;;;;;9.65;2.60;;;;;;;13.46;100.00;99009.88;5141086;27;20074;-54
2023/06/07 00:02:44;;;;;;;4.90;2.67;;;;;;;13.40;100.00;98993.75;5139820;28;20108;-60
2023/06/07 00:05:10;;;;;;;7.03;3.05;;;;;;;13.35;100.00;98972.06;5140154;28;20142;-62
2023/06/07 00:07:35;;;;;;;5.65;3.30;;;;;;;13.30;100.00;98966.16;5139719;27;20061;-59
2023/06/07 00:10:02;;;;;;;8.00;2.85;;;;;;;13.26;100.00;98963.41;5140149;28;20400;-56
2023/06/07 00:12:28;;;;;;;7.03;2.70;;;;;;;13.18;100.00;98965.28;5139516;28;20066;-53
2023/06/07 00:14:54;;;;;;;4.85;2.97;;;;;;;13.16;100.00;98944.81;5139460;28;20047;-54
2023/06/07 00:17:20;;;;;;;5.53;3.03;;;;;;;13.14;100.00;98944.44;5139742;28;20055;-60
2023/06/07 00:19:47;;;;;;;7.82;2.78;;;;;;;13.11;100.00;98948.75;5139721;28;20062;-59
2023/06/07 00:22:13;;;;;;;3.35;2.58;;;;;;;13.04;100.00;98939.69;5139798;28;20137;-59
2023/06/07 00:24:39;;;;;;;4.97;2.33;;;;;;;12.99;100.00;98935.31;5138928;27;20047;-53
2023/06/07 00:27:05;;;;;;;5.60;2.92;;;;;;;12.90;100.00;98929.41;5138997;27;20051;-55
2023/06/07 00:29:31;;;;;;;3.65;2.60;;;;;;;12.87;100.00;98928.22;5139387;28;20138;-62
2023/06/07 00:31:57;;;;;;;5.95;2.40;;;;;;;12.81;100.00;98909.72;5139882;27;20047;-62
2023/06/07 00:34:23;;;;;;;7.32;2.67;;;;;;;12.82;100.00;98914.81;5139291;28;20138;-63
2023/06/07 00:36:49;;;;;;;4.18;2.40;;;;;;;12.85;100.00;98899.50;5139582;27;20047;-58
2023/06/07 00:39:15;;;;;;;4.72;2.55;;;;;;;12.79;100.00;98898.28;5139178;28;20100;-63
2023/06/07 00:41:41;;;;;;;5.05;2.72;;;;;;;12.74;100.00;98898.69;5139656;27;20051;-55
2023/06/07 00:44:07;;;;;;;7.93;2.90;;;;;;;12.77;100.00;98895.16;5139018;28;20055;-54
2023/06/07 00:46:33;;;;;;;8.45;3.20;;;;;;;12.69;100.00;98886.06;5139022;28;20141;-53
2023/06/07 00:48:59;;;;;;;5.15;2.53;;;;;;;12.69;100.00;98891.56;5139335;27;20054;-62
2023/06/07 00:51:28;;;;;;;4.85;2.78;;;;;;;12.70;100.00;98871.16;5138961;28;20433;-56
2023/06/07 00:53:58;;;;;;;9.60;3.38;;;;;;;12.65;100.00;98883.28;5139501;28;20061;-65
2023/06/07 00:56:24;;;;;;;5.22;3.15;;;;;;;12.64;100.00;98876.22;5138829;28;20555;-58
2023/06/07 00:58:50;;;;;;;7.80;3.00;;;;;;;12.66;100.00;98871.16;5139130;27;20320;-58
2023/06/07 01:01:17;;;;;;;5.43;3.47;;;;;;;12.57;100.00;98876.19;5138803;28;20082;-62
2023/06/07 01:03:44;;;;;;;5.13;3.25;;;;;;;12.53;100.00;98871.84;5139246;28;20050;-63
2023/06/07 01:06:10;;;;;;;7.40;3.70;;;;;;;12.54;100.00;98851.44;5138926;27;20066;-58
2023/06/07 01:08:37;;;;;;;6.15;3.00;;;;;;;12.43;100.00;98832.16;5139166;28;20058;-58
2023/06/07 01:11:05;;;;;;;4.13;3.22;;;;;;;12.42;100.00;98830.53;5138597;28;20083;-63
2023/06/07 01:13:31;;;;;;;5.30;3.17;;;;;;;12.39;100.00;98823.84;5138848;28;20047;-58
2023/06/07 01:15:58;;;;;;;6.03;2.90;;;;;;;12.32;100.00;98814.78;5138858;28;20497;-57
2023/06/07 01:18:25;;;;;;;4.43;3.17;;;;;;;12.19;100.00;98790.38;5138727;28;20043;-58
2023/06/07 01:20:55;;;;;;;6.63;3.08;;;;;;;12.24;100.00;98794.72;5138581;28;20111;-62
2023/06/07 01:23:28;;;;;;;5.35;3.13;;;;;;;12.22;100.00;98778.63;5138424;28;20458;-54
2023/06/07 01:25:55;;;;;;;5.38;3.03;;;;;;;12.17;100.00;98779.00;5138863;27;20058;-63
2023/06/07 01:28:22;;;;;;;7.00;3.03;;;;;;;12.20;100.00;98767.25;5138414;28;20142;-56
2023/06/07 01:30:48;;;;;;;6.38;3.10;;;;;;;12.22;100.00;98769.59;5138847;28;20051;-63
2023/06/07 01:33:16;;;;;;;4.82;3.17;;;;;;;12.21;100.00;98762.53;5138292;28;20142;-58
2023/06/07 01:35:45;;;;;;;7.47;3.90;;;;;;;12.18;100.00;98766.81;5138615;27;20050;-54
2023/06/07 01:38:12;;;;;;;5.28;3.38;;;;;;;12.14;100.00;98763.28;5138106;27;20043;-61
2023/06/07 01:40:41;;;;;;;6.25;3.28;;;;;;;12.15;100.00;98747.56;5125061;27;20142;-62
2023/06/07 01:43:07;;;;;;;8.80;3.83;;;;;;;12.11;100.00;98742.06;5159193;27;20051;-63
2023/06/07 01:45:33;;;;;;;5.85;3.22;;;;;;;12.10;100.00;98737.75;5159311;27;20145;-55
2023/06/07 01:47:59;;;;;;;5.65;3.47;;;;;;;12.10;100.00;98732.25;5159050;27;20058;-64
2023/06/07 01:50:25;;;;;;;8.63;3.45;;;;;;;12.12;100.00;98732.63;5159057;27;20475;-58
2023/06/07 01:52:51;;;;;;;7.28;3.15;;;;;;;12.10;100.00;98718.50;5159419;27;20062;-63
2023/06/07 01:55:18;;;;;;;7.93;3.28;;;;;;;12.07;100.00;98718.50;5158740;27;20054;-65
2023/06/07 01:57:52;;;;;;;9.05;3.45;;;;;;;12.07;100.00;98705.53;5159062;27;20050;-63
2023/06/07 02:00:24;;;;;;;4.63;2.88;;;;;;;12.07;100.00;98702.78;5158662;27;20054;-54
2023/06/07 02:02:55;;;;;;;7.68;3.20;;;;;;;12.09;100.00;98696.91;5159341;27;20050;-62
2023/06/07 02:05:25;;;;;;;4.85;2.90;;;;;;;12.09;100.00;98681.19;5158631;27;20074;-66
2023/06/07 02:07:53;;;;;;;3.78;2.65;;;;;;;12.09;100.00;98686.69;5158728;27;20107;-64
2023/06/07 02:10:23;;;;;;;6.63;3.22;;;;;;;12.08;100.00;98679.63;5158839;27;20074;-58
2023/06/07 02:12:51;;;;;;;5.80;3.17;;;;;;;12.12;100.00;98680.44;5158548;27;20050;-54
2023/06/07 02:15:18;;;;;;;5.18;2.92;;;;;;;12.18;100.00;98684.38;5158737;27;20378;-62
2023/06/07 02:17:57;;;;;;;7.10;3.10;;;;;;;12.19;100.00;98688.69;5158427;27;20134;-55
2023/06/07 02:20:23;;;;;;;5.63;3.03;;;;;;;12.38;100.00;98692.31;5158958;27;20047;-61
2023/06/07 02:22:49;;;;;;;4.72;3.10;;;;;;;12.47;100.00;98706.47;5158298;27;20053;-63
2023/06/07 02:25:15;;;;;;;7.28;3.33;;;;;;;12.77;100.00;98725.41;5158748;27;20332;-63
2023/06/07 02:27:41;;;;;;;6.38;3.05;;;;;;;13.20;100.00;98769.50;5158220;27;20459;-59
2023/06/07 02:30:09;;;;;;;5.82;3.33;;;;;;;13.51;100.00;98809.25;5158707;27;20043;-55
2023/06/07 02:32:35;;;;;;;4.80;2.80;;;;;;;13.67;100.00;98858.44;5158238;27;20133;-54
2023/06/07 02:35:01;;;;;;;8.15;3.25;;;;;;;13.92;100.00;98888.75;5158174;27;20132;-54
2023/06/07 02:37:28;;;;;;;5.60;2.92;;;;;;;14.18;100.00;98906.84;5158279;27;20483;-62
2023/06/07 02:39:54;;;;;;;15.35;4.38;;;;;;;14.53;100.00;98943.88;5158138;27;20133;-54
2023/06/07 02:42:20;;;;;;;5.45;3.60;;;;;;;14.75;100.00;98964.72;5158305;27;20078;-59
2023/06/07 02:44:46;;;;;;;3.72;2.88;;;;;;;15.00;100.00;98988.72;5158046;27;20054;-59
2023/06/07 02:47:12;;;;;;;5.72;3.33;;;;;;;15.27;100.00;98998.09;5158322;27;20427;-62
2023/06/07 02:49:38;;;;;;;5.10;3.40;;;;;;;15.42;100.00;99023.66;5157069;27;20065;-59
2023/06/07 02:52:05;;;;;;;6.80;3.28;;;;;;;15.71;100.00;99048.44;5158457;27;20129;-64
2023/06/07 02:54:34;;;;;;;9.23;3.67;;;;;;;15.96;100.00;99057.41;5157792;27;20057;-63
2023/06/07 02:57:00;;;;;;;7.10;3.78;;;;;;;16.05;100.00;99067.22;5157873;27;20412;-54
2023/06/07 02:59:27;;;;;;;6.75;3.53;;;;;;;16.32;100.00;99075.75;5158140;27;20111;-55
2023/06/07 03:01:53;;;;;;;3.72;2.70;;;;;;;16.56;100.00;99094.16;5158257;27;20065;-60
2023/06/07 03:04:20;;;;;;;9.05;3.35;;;;;;;16.74;100.00;99098.78;5158083;27;20046;-53
2023/06/07 03:06:46;;;;;;;10.02;3.40;;;;;;;16.85;100.00;99119.66;5157957;27;20137;-60
2023/06/07 03:09:15;;;;;;;8.85;2.80;;;;;;;17.13;100.00;99126.16;5158113;27;20369;-63
2023/06/07 03:11:41;;;;;;;5.03;3.20;;;;;;;17.11;100.00;99128.53;5157704;27;20392;-64
2023/06/07 03:14:07;;;;;;;4.38;3.25;;;;;;;17.39;100.00;99139.34;5158182;27;20150;-59
2023/06/07 03:16:33;;;;;;;6.55;3.22;;;;;;;17.55;100.00;99135.22;5157552;27;20055;-56
2023/06/07 03:18:59;;;;;;;10.93;3.53;;;;;;;17.83;100.00;99151.56;5158019;27;20139;-63
2023/06/07 03:21:26;;;;;;;9.27;3.35;;;;;;;17.94;100.00;99157.00;5157449;27;20054;-59
2023/06/07 03:23:53;;;;;;;9.07;4.15;;;;;;;18.24;100.00;99166.53;5157968;27;20137;-64
2023/06/07 03:26:19;;;;;;;5.45;3.08;;;;;;;18.55;100.00;99179.16;5157765;27;20062;-56
2023/06/07 03:28:45;;;;;;;5.88;3.47;;;;;;;18.69;100.00;99175.38;5157434;27;20432;-59
2023/06/07 03:31:11;;;;;;;8.70;3.60;;;;;;;19.00;100.00;99178.16;5157496;27;20047;-59
2023/06/07 03:33:37;;;;;;;5.03;3.50;;;;;;;19.11;100.00;99186.28;5157476;27;20424;-57
2023/06/07 03:36:07;;;;;;;4.57;3.05;;;;;;;19.41;100.00;99196.50;5157818;27;20066;-59
2023/06/07 03:38:33;;;;;;;4.57;3.33;;;;;;;19.57;100.00;99199.41;5157447;27;20055;-56
2023/06/07 03:40:59;;;;;;;3.90;2.95;;;;;;;19.79;100.00;99205.38;5157674;27;20046;-54
2023/06/07 03:43:25;;;;;;;5.72;3.75;;;;;;;19.90;100.00;99216.31;5157291;27;20425;-56
2023/06/07 03:45:51;;;;;;;5.47;3.42;;;;;;;20.43;100.00;99208.88;5157763;27;20422;-61
2023/06/07 03:48:17;;;;;;;6.43;3.92;;;;;;;20.53;100.00;99223.81;5157482;27;20047;-61
2023/06/07 03:50:43;;;;;;;4.22;3.38;;;;;;;21.10;93.88;99247.59;5161816;27;20062;-62
2023/06/07 03:53:09;;;;;;;7.60;3.35;;;;;;;21.05;89.79;99245.31;5161435;27;20134;-59
2023/06/07 03:55:35;;;;;;;5.45;3.10;;;;;;;21.26;85.53;99252.38;5158572;27;20058;-59
2023/06/07 03:58:01;;;;;;;5.43;3.25;;;;;;;21.91;89.00;99248.78;5157278;27;20077;-60
2023/06/07 04:00:27;;;;;;;6.72;3.10;;;;;;;22.35;82.30;99265.94;5159078;27;20047;-60
2023/06/07 04:02:53;;;;;;;6.75;3.50;;;;;;;22.38;84.24;99257.44;5160882;27;20042;-59
2023/06/07 04:05:20;;;;;;;9.82;3.42;;;;;;;22.67;80.20;99265.00;5160379;27;20050;-64
2023/06/07 04:07:47;;;;;;;7.85;4.50;;;;;;;23.09;77.56;99264.94;5160872;27;20135;-57
2023/06/07 04:10:13;;;;;;;8.60;4.15;;;;;;;23.07;82.68;99265.41;5160529;27;20051;-54
2023/06/07 04:12:42;;;;;;;4.20;3.03;;;;;;;23.17;79.27;99269.09;5160929;27;20050;-55
2023/06/07 04:15:08;;;;;;;6.50;2.83;;;;;;;23.58;74.62;99275.75;5160856;27;20054;-59
2023/06/07 04:17:34;;;;;;;7.95;4.40;;;;;;;23.73;78.68;99265.69;5161075;27;20468;-64
2023/06/07 04:20:00;;;;;;;6.35;4.20;;;;;;;23.67;77.78;99270.25;5160833;27;20072;-65
2023/06/07 04:22:26;;;;;;;8.93;4.35;;;;;;;24.11;79.08;99267.56;5161193;27;20047;-64
2023/06/07 04:24:53;;;;;;;8.95;4.90;;;;;;;24.03;78.85;99264.22;5160597;27;20290;-60
2023/06/07 04:27:19;;;;;;;9.13;4.32;;;;;;;24.00;80.32;99253.94;5160195;27;20061;-62
2023/06/07 04:29:53;;;;;;;9.80;4.03;;;;;;;24.34;78.14;99261.50;5160411;27;20047;-60
2023/06/07 04:32:19;;;;;;;6.78;4.00;;;;;;;24.64;77.01;99262.81;5160268;27;20076;-56
2023/06/07 04:34:45;;;;;;;7.72;3.97;;;;;;;25.10;73.29;99274.25;5160339;27;20407;-58
2023/06/07 04:37:12;;;;;;;8.90;3.42;;;;;;;24.92;68.90;99281.78;5159970;27;20137;-60
2023/06/07 04:39:39;;;;;;;7.85;3.70;;;;;;;25.23;73.20;99276.19;5160296;27;20051;-57
2023/06/07 04:42:06;;;;;;;6.72;3.55;;;;;;;25.21;66.22;99285.06;5159992;27;20103;-64
2023/06/07 04:44:32;;;;;;;5.95;3.38;;;;;;;25.73;68.17;99286.16;5160309;27;20051;-62
2023/06/07 04:47:19;;;;;;;7.90;3.80;;;;;;;25.63;65.78;99287.38;5159928;27;20050;-54
2023/06/07 04:49:46;;;;;;;8.38;3.67;;;;;;;25.81;63.22;99286.63;5159829;27;20054;-54
2023/06/07 04:52:12;;;;;;;6.88;3.20;;;;;;;26.23;63.68;99286.81;5160207;27;20057;-62
2023/06/07 04:54:39;;;;;;;9.20;3.58;;;;;;;26.41;63.37;99285.25;5159768;27;20393;-58
2023/06/07 04:57:06;;;;;;;6.68;3.63;;;;;;;26.78;62.07;99294.41;5159992;27;20182;-58
2023/06/07 04:59:34;;;;;;;9.95;3.40;;;;;;;26.66;62.80;99286.97;5159676;27;20052;-63
2023/06/07 05:02:00;;;;;;;9.95;3.70;;;;;;;26.83;62.46;99290.19;5160093;27;20100;-58
2023/06/07 05:04:27;;;;;;;7.07;3.50;;;;;;;27.12;60.80;99286.78;5159475;27;20047;-63
2023/06/07 05:06:58;;;;;;;7.18;3.80;;;;;;;27.62;60.36;99287.19;5159305;27;20055;-60
2023/06/07 05:09:24;;;;;;;11.55;5.32;;;;;;;27.66;60.03;99297.03;5159322;27;20066;-56
2023/06/07 05:11:49;;;;;;;8.15;3.92;;;;;;;27.59;58.88;99300.22;5158990;27;20055;-62
2023/06/07 05:14:16;;;;;;;7.72;3.50;;;;;;;27.93;58.72;99300.94;5159454;27;20050;-62
2023/06/07 05:16:43;;;;;;;7.38;3.35;;;;;;;27.81;57.21;99297.09;5158909;27;20072;-54
2023/06/07 05:19:11;;;;;;;11.02;3.25;;;;;;;28.05;57.74;99296.31;5159318;27;20066;-52
2023/06/07 05:21:37;;;;;;;9.93;3.72;;;;;;;27.94;57.06;99298.91;5158980;27;20090;-57
2023/06/07 05:24:03;;;;;;;9.27;3.90;;;;;;;27.97;57.15;99298.72;5159243;27;20054;-59
2023/06/07 05:26:30;;;;;;;11.82;3.70;;;;;;;28.60;56.36;99293.03;5158808;27;20442;-53
2023/06/07 05:28:56;;;;;;;15.23;4.40;;;;;;;28.05;56.35;99297.09;5159177;27;20050;-53
2023/06/07 05:31:23;;;;;;;8.15;3.65;;;;;;;28.67;56.23;99295.47;5158817;27;20145;-60
2023/06/07 05:33:49;;;;;;;9.35;4.00;;;;;;;29.01;55.48;99304.53;5159354;27;20069;-61
2023/06/07 05:36:15;;;;;;;10.40;3.80;;;;;;;28.59;54.82;99308.38;5158515;27;20046;-57
2023/06/07 05:38:41;;;;;;;18.33;4.68;;;;;;;28.21;55.37;99300.72;5159102;27;20053;-56
2023/06/07 05:41:08;;;;;;;14.90;4.13;;;;;;;28.58;55.01;99310.44;5158635;27;20078;-57
2023/06/07 05:43:34;;;;;;;21.48;5.10;;;;;;;28.81;54.96;99305.97;5158824;27;20125;-60
2023/06/07 05:46:00;;;;;;;12.73;4.38;;;;;;;29.03;55.35;99302.00;5158920;27;20139;-57
2023/06/07 05:48:26;;;;;;;30.98;6.45;;;;;;;29.59;54.11;99305.66;5158726;27;20049;-60
2023/06/07 05:50:52;;;;;;;19.25;5.20;;;;;;;28.69;54.05;99304.22;5158846;27;20078;-59
2023/06/07 05:53:18;;;;;;;19.63;5.07;;;;;;;29.52;53.83;99303.22;5158335;27;20055;-55
2023/06/07 05:55:45;;;;;;;14.43;5.70;;;;;;;29.15;53.61;99306.53;5158594;27;20134;-52
2023/06/07 05:58:11;;;;;;;15.63;6.38;;;;;;;29.80;53.61;99308.53;5158457;27;20043;-57
2023/06/07 06:00:37;;;;;;;21.67;6.55;;;;;;;30.22;54.25;99306.00;5158584;27;20139;-61
2023/06/07 06:03:04;;;;;;;18.20;6.20;;;;;;;30.60;52.66;99303.31;5158129;27;20047;-62
2023/06/07 06:05:30;;;;;;;14.27;6.32;;;;;;;30.57;53.01;99307.91;5158405;27;20051;-60
2023/06/07 06:07:56;;;;;;;15.98;6.80;;;;;;;30.79;51.92;99309.41;5158179;27;20058;-62
2023/06/07 06:10:22;;;;;;;16.65;7.05;;;;;;;30.05;52.59;99307.03;5158721;27;20046;-62
2023/06/07 06:12:49;;;;;;;16.05;6.50;;;;;;;31.11;51.08;99308.16;5158423;27;20061;-62
2023/06/07 06:15:15;;;;;;;16.35;7.07;;;;;;;31.07;51.07;99309.66;5158210;27;20310;-59
2023/06/07 06:17:41;;;;;;;24.02;8.60;;;;;;;31.27;50.81;99303.13;5158323;27;20100;-59
2023/06/07 06:20:07;;;;;;;19.33;8.20;;;;;;;31.64;50.69;99305.94;5157848;27;20427;-59
2023/06/07 06:22:33;;;;;;;23.70;8.60;;;;;;;31.73;50.19;99308.59;5157842;27;20047;-56
2023/06/07 06:24:59;;;;;;;27.52;8.93;;;;;;;31.69;50.19;99305.22;5157359;27;20050;-58
2023/06/07 06:27:25;;;;;;;27.23;9.95;;;;;;;30.20;51.90;99307.78;5158241;27;20071;-64
2023/06/07 06:29:52;;;;;;;23.45;8.68;;;;;;;31.46;50.82;99303.50;5157901;27;20416;-63
2023/06/07 06:32:18;;;;;;;25.67;9.07;;;;;;;31.82;50.18;99299.06;5158106;27;20213;-64
2023/06/07 06:34:44;;;;;;;21.52;9.07;;;;;;;31.71;50.30;99302.63;5157838;27;20046;-61
2023/06/07 06:37:10;;;;;;;18.10;8.70;;;;;;;32.21;50.28;99299.25;5158069;27;20464;-56
2023/06/07 06:39:36;;;;;;;24.23;8.77;;;;;;;31.71;50.34;99302.63;5157708;27;20470;-61
2023/06/07 06:42:02;;;;;;;23.42;8.73;;;;;;;31.90;50.21;99296.59;5157885;27;20069;-61
2023/06/07 06:44:28;;;;;;;22.38;9.40;;;;;;;32.13;50.00;99291.78;5157664;27;20476;-59
2023/06/07 06:46:55;;;;;;;16.02;7.82;;;;;;;31.82;49.66;99299.06;5157967;27;20050;-58
2023/06/07 06:49:21;;;;;;;21.83;8.10;;;;;;;32.11;50.12;99295.09;5157507;27;20491;-55
2023/06/07 06:51:47;;;;;;;35.08;8.93;;;;;;;32.39;50.16;99289.53;5157530;27;20137;-56
2023/06/07 06:54:13;;;;;;;25.25;9.40;;;;;;;32.23;49.62;99288.19;5157887;27;20064;-60
2023/06/07 06:56:39;;;;;;;22.33;8.18;;;;;;;32.47;49.53;99296.25;5157298;27;20111;-58
2023/06/07 06:59:05;;;;;;;20.48;8.18;;;;;;;32.52;49.96;99294.72;5157656;27;20115;-62
2023/06/07 07:01:43;;;;;;;21.05;8.43;;;;;;;32.07;50.10;99295.34;5157259;27;20050;-63
2023/06/07 07:04:10;;;;;;;13.63;7.25;;;;;;;32.49;48.46;99290.84;5157857;27;20086;-55
2023/06/07 07:06:36;;;;;;;19.15;8.15;;;;;;;32.75;48.93;99292.66;5157447;27;20054;-63
2023/06/07 07:09:03;;;;;;;21.65;7.57;;;;;;;33.03;48.46;99293.50;5157457;27;20046;-58
2023/06/07 07:11:29;;;;;;;18.63;7.00;;;;;;;33.28;48.21;99294.47;5157499;27;20061;-57
2023/06/07 07:13:55;;;;;;;14.93;6.15;;;;;;;33.27;49.01;99301.47;5157444;27;20047;-58
2023/06/07 07:16:21;;;;;;;14.80;6.80;;;;;;;33.80;47.93;99300.84;5156911;27;20109;-62
2023/06/07 07:18:46;;;;;;;15.23;5.47;;;;;;;33.76;47.63;99303.97;5157244;27;20424;-64
2023/06/07 07:21:13;;;;;;;16.55;5.57;;;;;;;33.44;47.18;99298.59;5157156;27;20127;-63
2023/06/07 07:23:39;;;;;;;11.30;5.10;;;;;;;33.27;46.87;99297.84;5157197;27;20137;-65
2023/06/07 07:26:05;;;;;;;14.18;5.60;;;;;;;33.09;47.05;99301.22;5157024;27;20454;-66
2023/06/07 07:28:31;;;;;;;9.77;5.32;;;;;;;33.33;47.08;99298.63;5157391;27;20042;-64
2023/06/07 07:30:57;;;;;;;13.60;4.15;;;;;;;33.27;46.40;99301.47;5157087;27;20164;-55
2023/06/07 07:33:23;;;;;;;11.07;4.15;;;;;;;33.33;45.80;99295.00;5157534;27;20340;-59
2023/06/07 07:35:49;;;;;;;16.17;4.32;;;;;;;33.45;46.09;99300.13;5158772;27;20390;-60
2023/06/07 07:38:15;;;;;;;12.52;4.93;;;;;;;33.80;45.82;99295.16;5160437;27;20085;-62
2023/06/07 07:40:41;;;;;;;10.85;4.07;;;;;;;33.93;45.42;99299.00;5160365;27;20465;-63
2023/06/07 07:43:09;;;;;;;10.52;3.95;;;;;;;33.87;44.83;99297.47;5160420;27;20050;-65
2023/06/07 07:45:35;;;;;;;7.70;3.95;;;;;;;33.72;45.20;99292.88;5160502;27;20427;-63
2023/06/07 07:48:01;;;;;;;10.95;3.83;;;;;;;33.94;43.58;99291.22;5160634;27;20137;-64
2023/06/07 07:50:27;;;;;;;9.93;4.07;;;;;;;34.36;43.69;99294.94;5160835;27;20091;-56
2023/06/07 07:52:54;;;;;;;9.38;3.58;;;;;;;34.12;43.01;99301.25;5160486;27;20050;-65
2023/06/07 07:55:23;;;;;;;8.50;3.92;;;;;;;33.57;44.00;99289.56;5160570;27;20081;-66
2023/06/07 07:57:49;;;;;;;8.45;3.95;;;;;;;33.49;43.87;99288.56;5160470;27;20125;-57
2023/06/07 08:00:16;;;;;;;4.35;3.13;;;;;;;33.76;43.13;99284.06;5160835;27;20046;-63
2023/06/07 08:02:43;;;;;;;11.60;3.70;;;;;;;33.14;43.23;99281.34;5160506;27;20086;-56
2023/06/07 08:05:09;;;;;;;8.60;3.40;;;;;;;33.49;43.38;99282.88;5160476;27;20380;-60
2023/06/07 08:07:35;;;;;;;5.38;3.17;;;;;;;34.13;41.98;99283.66;5160608;27;20293;-66
2023/06/07 08:10:01;;;;;;;8.57;3.60;;;;;;;34.28;42.39;99288.25;5160135;27;20099;-63
2023/06/07 08:12:28;;;;;;;5.57;3.35;;;;;;;33.86;42.51;99288.16;5160074;27;20051;-58
2023/06/07 08:14:54;;;;;;;9.43;3.90;;;;;;;33.63;42.81;99281.78;5160110;27;20118;-61
2023/06/07 08:17:20;;;;;;;6.00;3.47;;;;;;;33.88;43.36;99293.31;5160495;27;20057;-59
2023/06/07 08:19:46;;;;;;;9.80;5.25;;;;;;;34.76;42.67;99282.00;5160138;27;20050;-63
2023/06/07 08:22:12;;;;;;;8.88;3.70;;;;;;;34.39;42.39;99274.72;5160745;27;20134;-64
2023/06/07 08:24:38;;;;;;;21.27;4.60;;;;;;;34.34;42.69;99280.44;5159980;27;20145;-60
2023/06/07 08:27:05;;;;;;;10.85;3.17;;;;;;;34.27;42.22;99281.00;5160461;27;20065;-64
2023/06/07 08:29:32;;;;;;;7.43;3.58;;;;;;;34.11;42.01;99289.09;5159925;27;20046;-60
2023/06/07 08:31:58;;;;;;;8.30;3.33;;;;;;;33.61;42.17;99273.00;5160358;27;20147;-57
2023/06/07 08:34:27;;;;;;;4.15;3.33;;;;;;;34.02;41.75;99274.41;5159933;27;20051;-56
2023/06/07 08:36:53;;;;;;;5.40;3.30;;;;;;;33.31;42.20;99274.84;5159884;27;20054;-59
2023/06/07 08:39:19;;;;;;;8.35;3.45;;;;;;;32.86;42.71;99269.22;5159929;27;20054;-62
2023/06/07 08:41:45;;;;;;;7.30;3.28;;;;;;;32.78;43.13;99271.78;5159487;27;20412;-65
2023/06/07 08:44:11;;;;;;;6.45;3.65;;;;;;;32.68;43.88;99271.25;5159713;27;20134;-63
2023/06/07 08:46:38;;;;;;;6.13;3.88;;;;;;;33.68;43.78;99271.69;5158591;27;20051;-56
2023/06/07 08:49:05;;;;;;;15.73;3.90;;;;;;;33.73;43.43;99274.50;5159921;27;20050;-57
2023/06/07 08:51:36;;;;;;;7.40;3.40;;;;;;;33.98;42.56;99280.34;5159773;27;20305;-65
2023/06/07 08:54:03;;;;;;;7.00;3.53;;;;;;;34.44;42.13;99275.97;5159551;27;20332;-62
2023/06/07 08:56:31;;;;;;;8.10;3.60;;;;;;;34.61;41.42;99276.66;5159411;27;20137;-60
2023/06/07 08:58:58;;;;;;;10.55;3.47;;;;;;;34.62;40.53;99272.53;5159766;27;20047;-66
2023/06/07 09:01:24;;;;;;;7.00;3.72;;;;;;;34.42;40.58;99270.81;5159425;27;20047;-61
2023/06/07 09:03:52;;;;;;;5.32;3.45;;;;;;;34.55;41.55;99275.16;5159585;27;20047;-59
2023/06/07 09:06:18;;;;;;;6.95;3.47;;;;;;;34.76;41.89;99267.00;5159430;27;20399;-58
2023/06/07 09:08:44;;;;;;;10.18;3.40;;;;;;;34.06;42.23;99267.16;5159248;27;20503;-60
2023/06/07 09:11:10;;;;;;;4.68;3.45;;;;;;;34.63;41.69;99267.59;5159552;27;20046;-57
2023/06/07 09:13:36;;;;;;;7.93;3.50;;;;;;;34.57;41.71;99264.78;5159122;27;20046;-65
2023/06/07 09:16:03;;;;;;;4.65;3.50;;;;;;;34.16;42.37;99262.72;5159260;27;20061;-56
2023/06/07 09:18:41;;;;;;;3.85;3.35;;;;;;;33.28;42.39;99260.38;5158913;27;20398;-66
2023/06/07 09:21:18;;;;;;;7.32;3.95;;;;;;;32.31;43.29;99258.03;5159164;27;20054;-57
2023/06/07 09:23:44;;;;;;;8.45;3.85;;;;;;;32.20;43.77;99246.66;5159031;27;20107;-64
2023/06/07 09:26:11;;;;;;;7.78;3.63;;;;;;;32.35;43.41;99255.69;5159531;27;20046;-61
2023/06/07 09:28:37;;;;;;;5.22;3.70;;;;;;;32.67;42.74;99255.53;5158810;27;20095;-64
2023/06/07 09:31:04;;;;;;;6.20;3.80;;;;;;;33.20;42.34;99250.88;5159371;27;20062;-56
2023/06/07 09:33:33;;;;;;;6.10;3.72;;;;;;;33.31;41.71;99255.75;5159191;27;20060;-60
2023/06/07 09:36:04;;;;;;;6.85;3.70;;;;;;;33.80;41.84;99244.75;5158944;27;20065;-62
2023/06/07 09:38:30;;;;;;;7.95;3.70;;;;;;;34.07;41.94;99251.63;5158898;27;20046;-65
2023/06/07 09:40:58;;;;;;;6.45;3.72;;;;;;;34.20;41.90;99253.88;5159066;27;20042;-57
2023/06/07 09:43:25;;;;;;;6.30;3.75;;;;;;;33.86;41.86;99256.88;5159147;27;20103;-59
2023/06/07 09:45:53;;;;;;;10.18;3.33;;;;;;;33.86;40.77;99253.28;5158628;27;20342;-58
2023/06/07 09:48:20;;;;;;;10.05;3.80;;;;;;;33.17;40.84;99245.44;5159053;27;20046;-65
2023/06/07 09:50:55;;;;;;;7.68;3.78;;;;;;;33.39;41.24;99242.56;5158564;27;20133;-63
2023/06/07 09:53:21;;;;;;;6.13;4.13;;;;;;;33.70;41.76;99240.66;5158377;27;20051;-55
2023/06/07 09:55:48;;;;;;;10.50;4.07;;;;;;;33.95;41.55;99247.25;5158532;27;20057;-61
2023/06/07 09:58:18;;;;;;;11.95;4.03;;;;;;;34.01;41.08;99238.75;5158271;27;20110;-60
2023/06/07 10:00:44;;;;;;;6.68;4.00;;;;;;;33.55;40.56;99235.28;5158532;27;20105;-60
2023/06/07 10:03:10;;;;;;;8.00;3.58;;;;;;;32.80;41.50;99240.81;5158490;27;20073;-60
2023/06/07 10:05:36;;;;;;;6.75;4.07;;;;;;;32.87;42.09;99242.34;5158613;27;20069;-61
2023/06/07 10:08:03;;;;;;;8.13;4.10;;;;;;;33.34;40.46;99231.97;5158219;27;20332;-63
2023/06/07 10:10:30;;;;;;;5.55;3.95;;;;;;;32.71;41.23;99232.56;5158615;27;20073;-60
2023/06/07 10:12:58;;;;;;;5.18;4.53;;;;;;;32.76;41.15;99224.03;5158178;27;20106;-63
2023/06/07 10:15:25;;;;;;;10.15;4.20;;;;;;;32.71;40.64;99229.72;5158723;27;20050;-55
2023/06/07 10:17:55;;;;;;;6.90;3.92;;;;;;;31.09;40.39;99230.66;5158189;27;20426;-64
2023/06/07 10:20:25;;;;;;;9.18;4.07;;;;;;;31.94;40.68;99215.66;5158233;27;20067;-57
2023/06/07 10:22:54;;;;;;;7.97;4.47;;;;;;;32.78;40.58;99224.28;5158282;27;20050;-58
2023/06/07 10:25:24;;;;;;;6.55;3.70;;;;;;;32.95;40.92;99221.41;5157870;27;20046;-63
2023/06/07 10:28:00;;;;;;;6.88;3.85;;;;;;;32.35;41.65;99227.31;5158063;27;20050;-58
2023/06/07 10:30:31;;;;;;;9.05;4.43;;;;;;;32.39;41.10;99223.47;5158127;27;20387;-65
2023/06/07 10:32:58;;;;;;;8.05;4.05;;;;;;;30.58;41.50;99215.31;5158213;27;20396;-63
2023/06/07 10:35:25;;;;;;;7.15;3.63;;;;;;;31.06;43.12;99212.63;5157750;27;20087;-63
2023/06/07 10:37:53;;;;;;;7.45;3.97;;;;;;;31.34;42.83;99214.88;5158295;27;20269;-63
2023/06/07 10:40:21;;;;;;;6.70;3.95;;;;;;;31.83;41.48;99218.44;5157597;27;20416;-61
2023/06/07 10:42:47;;;;;;;8.23;4.18;;;;;;;31.34;41.21;99204.31;5157687;27;20463;-64
2023/06/07 10:45:17;;;;;;;6.28;3.90;;;;;;;31.22;41.82;99199.06;5157904;27;20067;-57
2023/06/07 10:47:44;;;;;;;7.82;3.88;;;;;;;31.05;42.00;99191.25;5157864;27;20149;-60
2023/06/07 10:50:43;;;;;;;8.18;4.07;;;;;;;31.31;42.95;99196.78;5157782;27;20107;-59
2023/06/07 10:53:09;;;;;;;7.80;3.70;;;;;;;30.82;43.42;99204.47;5157714;27;20051;-63
2023/06/07 10:55:35;;;;;;;10.15;3.97;;;;;;;31.24;42.87;99197.28;5157949;27;20082;-62
2023/06/07 10:58:01;;;;;;;4.80;3.53;;;;;;;30.18;43.28;99195.16;5157508;27;20047;-64
2023/06/07 11:00:32;;;;;;;5.30;3.85;;;;;;;30.31;44.15;99188.34;5157928;27;20106;-64
2023/06/07 11:03:35;;;;;;;5.65;3.72;;;;;;;30.22;43.86;99183.63;5157312;27;20051;-54
2023/06/07 11:06:08;;;;;;;4.28;3.53;;;;;;;29.55;45.63;99192.09;5157626;27;20160;-65
2023/06/07 11:08:36;;;;;;;9.85;4.05;;;;;;;29.58;45.29;99187.50;5157778;27;20057;-57
2023/06/07 11:11:03;;;;;;;7.22;4.57;;;;;;;28.99;45.21;99180.81;5160069;27;20372;-57
2023/06/07 11:14:10;;;;;;;12.05;4.20;;;;;;;28.74;46.03;99173.00;5161470;27;20133;-62
2023/06/07 11:16:37;;;;;;;10.13;3.92;;;;;;;28.26;45.79;99174.00;5161116;27;20043;-63
2023/06/07 11:19:05;;;;;;;7.07;4.20;;;;;;;27.44;44.96;99173.44;5161059;27;20385;-60
2023/06/07 11:22:00;;;;;;;7.20;3.80;;;;;;;27.89;45.26;99171.53;5161210;27;20078;-64
2023/06/07 11:24:26;;;;;;;6.10;3.75;;;;;;;28.90;45.19;99169.66;5160826;27;20054;-64
2023/06/07 11:26:52;;;;;;;12.85;4.45;;;;;;;28.99;45.04;99169.53;5161077;27;20054;-59
2023/06/07 11:29:19;;;;;;;6.95;4.10;;;;;;;29.34;45.56;99168.72;5160789;27;20146;-65